Whitecourt Airport

CYZU · 艾伯塔, 加拿大

2023年1月28日 12:002023年1月28日 16:00有效
时间
星期六
12:00
>40%
星期六
13:00
>40%
星期六
14:00
>40%
星期六
15:00
>40%
代码
MVFR
MVFR
MVFR
MVFR
天气
天空晴朗
天空晴朗
天空晴朗
天空晴朗
能见度
6 mi+
6 mi+
6 mi+
6 mi+
天花板
-
-
-
-
300°
300°
300°
300°
300°
300°
300°
300°
速度
18 kt
18 kt
18 kt
18 kt
阵风
28 kt
28 kt
28 kt
28 kt
温度/星期日

原版的

TAF CYZU 281840Z 2819/2823 30018G28KT P6SM SCT020
TEMPO 2819/2823 BKN020 RMK NXT FCST BY 291400Z

TAF Whitecourt Airport

Whitecourt Airport是,加拿大中的中型机场。 该机场有一条跑道: 11/29. 该领域的国际民航组织标志是CYZU 它的国际航空运输协会代码是YZU.

这份报告是针对2023年1月28日 11:40, 当地时间在Whitecourt Airport进行的。 从2023年1月28日 12:00到2023年1月28日 16:00, 当地时间有效.

预报

  • 在星期六 12:00和16:00之间

    • 风: 风来自300°方向,速度为18 kt。 预计28 kt阵风。
    • 能见度: 6 mi 或者更多
    • 乌云: 疏云,零星散落的云朵在2.000 ft的高度.
  • 暂时在星期六 12:00和16:00之间

    • 乌云: 碎云在2.000 ft的高度.

白天

今天,太阳从08:36升起,在17:15降落。 这适用于Whitecourt Airport,世界夏令时可能有所不同。 当地时间与世界标准时间之间的时差为-7 小时。 当前,没有夏令时有效。

我们和第三方通过cookies跟踪您在我们网站上的互联网行为。如果你继续,我们认为你同意我们的饼干政策